createdAt,value
2023-05-07T00:00:27.169Z,15.95
2023-05-07T00:02:54.924Z,15.85
2023-05-07T00:05:22.767Z,14.98
2023-05-07T00:07:51.250Z,15.13
2023-05-07T00:10:18.794Z,16.00
2023-05-07T00:12:47.818Z,15.77
2023-05-07T00:15:15.537Z,15.15
2023-05-07T00:17:43.214Z,13.95
2023-05-07T00:20:11.665Z,14.35
2023-05-07T00:22:39.492Z,14.30
2023-05-07T00:25:08.164Z,13.38
2023-05-07T00:27:35.778Z,14.63
2023-05-07T00:30:05.161Z,12.85
2023-05-07T00:32:32.806Z,12.50
2023-05-07T00:35:00.430Z,14.05
2023-05-07T00:37:28.042Z,13.65
2023-05-07T00:39:56.450Z,13.60
2023-05-07T00:42:25.090Z,12.85
2023-05-07T00:44:52.816Z,12.80
2023-05-07T00:47:22.140Z,12.85
2023-05-07T00:49:49.803Z,14.30
2023-05-07T00:52:18.518Z,14.20
2023-05-07T00:54:46.538Z,13.88
2023-05-07T00:57:14.591Z,13.95
2023-05-07T00:59:42.616Z,13.38
2023-05-07T01:02:10.425Z,13.77
2023-05-07T01:04:39.462Z,12.48
2023-05-07T01:07:07.837Z,13.23
2023-05-07T01:09:36.992Z,13.80
2023-05-07T01:12:05.527Z,13.40
2023-05-07T01:14:34.075Z,13.13
2023-05-07T01:17:02.004Z,14.00
2023-05-07T01:19:31.271Z,13.43
2023-05-07T01:22:07.413Z,13.05
2023-05-07T01:24:37.785Z,13.95
2023-05-07T01:27:05.739Z,13.23
2023-05-07T01:29:33.395Z,13.73
2023-05-07T01:32:02.498Z,13.70
2023-05-07T01:34:32.622Z,13.65
2023-05-07T01:37:01.307Z,14.85
2023-05-07T01:39:31.240Z,14.52
2023-05-07T01:42:01.573Z,15.82
2023-05-07T01:44:29.449Z,14.88
2023-05-07T01:46:57.109Z,14.80
2023-05-07T01:49:24.855Z,13.57
2023-05-07T01:51:52.526Z,13.70
2023-05-07T01:54:21.828Z,13.70
2023-05-07T01:56:49.985Z,14.65
2023-05-07T01:59:18.944Z,13.45
2023-05-07T02:01:46.598Z,13.48
2023-05-07T02:04:14.291Z,14.35
2023-05-07T02:06:41.894Z,14.18
2023-05-07T02:09:10.140Z,14.20
2023-05-07T02:11:37.767Z,14.90
2023-05-07T02:14:05.463Z,14.63
2023-05-07T02:16:34.512Z,15.13
2023-05-07T02:19:02.155Z,14.77
2023-05-07T02:21:31.092Z,14.15
2023-05-07T02:23:58.948Z,13.93
2023-05-07T02:26:26.961Z,14.98
2023-05-07T02:28:54.792Z,14.40
2023-05-07T02:31:22.429Z,15.77
2023-05-07T02:33:51.398Z,17.58
2023-05-07T02:36:19.002Z,15.98
2023-05-07T02:38:46.610Z,15.27
2023-05-07T02:41:14.217Z,15.85
2023-05-07T02:43:41.817Z,16.42
2023-05-07T02:46:10.881Z,15.95
2023-05-07T02:48:38.697Z,14.35
2023-05-07T02:51:07.717Z,14.73
2023-05-07T02:53:35.519Z,14.27
2023-05-07T02:56:03.697Z,15.50
2023-05-07T02:58:31.383Z,15.25
2023-05-07T03:00:59.956Z,15.32
2023-05-07T03:03:27.691Z,14.13
2023-05-07T03:05:55.316Z,14.80
2023-05-07T03:08:24.414Z,15.32
2023-05-07T03:10:52.093Z,14.77
2023-05-07T03:13:20.962Z,13.68
2023-05-07T03:15:48.748Z,14.07
2023-05-07T03:18:16.510Z,13.65
2023-05-07T03:20:44.268Z,14.38
2023-05-07T03:23:11.899Z,13.65
2023-05-07T03:25:40.897Z,13.95
2023-05-07T03:28:08.513Z,14.52
2023-05-07T03:30:36.300Z,14.18
2023-05-07T03:33:04.054Z,13.00
2023-05-07T03:35:31.666Z,13.40
2023-05-07T03:37:59.268Z,13.80
2023-05-07T03:40:26.856Z,13.60
2023-05-07T03:42:55.857Z,13.85
2023-05-07T03:45:23.446Z,12.95
2023-05-07T03:47:51.096Z,13.75
2023-05-07T03:50:18.858Z,13.82
2023-05-07T03:52:46.855Z,14.05
2023-05-07T03:55:14.688Z,14.57
2023-05-07T03:57:42.325Z,13.52
2023-05-07T04:00:13.057Z,14.25
2023-05-07T04:02:41.033Z,13.45
2023-05-07T04:05:09.497Z,13.52
2023-05-07T04:07:37.107Z,13.38
2023-05-07T04:10:05.022Z,13.13
2023-05-07T04:12:32.638Z,14.02
2023-05-07T04:15:00.521Z,13.35
2023-05-07T04:17:29.797Z,14.43
2023-05-07T04:19:57.413Z,12.98
2023-05-07T04:22:25.018Z,12.85
2023-05-07T04:24:52.614Z,13.82
2023-05-07T04:27:20.218Z,12.38
2023-05-07T04:29:48.299Z,12.98
2023-05-07T04:32:16.025Z,13.25
2023-05-07T04:34:45.058Z,12.80
2023-05-07T04:37:12.693Z,13.75
2023-05-07T04:39:40.311Z,13.30
2023-05-07T04:42:09.772Z,14.20
2023-05-07T04:44:38.065Z,12.82
2023-05-07T04:47:05.816Z,13.10
2023-05-07T04:49:33.423Z,12.85
2023-05-07T04:52:02.381Z,13.20
2023-05-07T04:54:29.966Z,14.25
2023-05-07T04:56:57.576Z,13.40
2023-05-07T04:59:25.305Z,13.70
2023-05-07T05:01:52.971Z,13.70
2023-05-07T05:04:20.699Z,13.23
2023-05-07T05:06:48.343Z,13.18
2023-05-07T05:09:17.428Z,13.63
2023-05-07T05:11:45.091Z,13.10
2023-05-07T05:14:12.693Z,14.00
2023-05-07T05:16:40.472Z,13.15
2023-05-07T05:19:08.162Z,13.88
2023-05-07T05:21:35.768Z,13.30
2023-05-07T05:24:03.391Z,12.20
2023-05-07T05:26:32.351Z,12.52
2023-05-07T05:28:59.980Z,12.73
2023-05-07T05:31:27.743Z,12.98
2023-05-07T05:33:55.467Z,12.95
2023-05-07T05:36:23.202Z,12.88
2023-05-07T05:38:50.839Z,14.38
2023-05-07T05:41:18.454Z,13.70
2023-05-07T05:43:47.438Z,13.98
2023-05-07T05:46:15.067Z,13.05
2023-05-07T05:48:42.727Z,13.55
2023-05-07T05:51:10.322Z,13.43
2023-05-07T05:53:37.980Z,13.13
2023-05-07T05:56:06.302Z,13.30
2023-05-07T05:58:33.917Z,13.80
2023-05-07T06:01:03.636Z,13.52
2023-05-07T06:03:31.281Z,13.35
2023-05-07T06:05:58.917Z,12.48
2023-05-07T06:08:26.541Z,14.02
2023-05-07T06:10:54.285Z,13.25
2023-05-07T06:13:22.111Z,13.00
2023-05-07T06:15:49.738Z,12.98
2023-05-07T06:18:18.752Z,13.35
2023-05-07T06:20:46.486Z,13.43
2023-05-07T06:23:15.862Z,13.18
2023-05-07T06:25:51.368Z,14.00
2023-05-07T06:28:19.286Z,12.98
2023-05-07T06:30:46.952Z,13.73
2023-05-07T06:33:14.532Z,13.05
2023-05-07T06:35:43.781Z,14.65
2023-05-07T06:38:12.028Z,14.30
2023-05-07T06:40:39.666Z,14.32
2023-05-07T06:43:07.332Z,13.48
2023-05-07T06:45:34.954Z,13.55
2023-05-07T06:48:02.590Z,14.07
2023-05-07T06:50:30.211Z,14.15
2023-05-07T06:52:59.144Z,14.35
2023-05-07T06:55:26.876Z,15.10
2023-05-07T06:57:54.566Z,14.73
2023-05-07T07:00:22.361Z,14.25
2023-05-07T07:02:50.018Z,14.02
2023-05-07T07:05:17.840Z,15.98
2023-05-07T07:07:45.483Z,14.75
2023-05-07T07:10:14.485Z,14.82
2023-05-07T07:12:42.115Z,13.88
2023-05-07T07:15:10.401Z,14.93
2023-05-07T07:17:38.085Z,14.55
2023-05-07T07:20:07.745Z,14.05
2023-05-07T07:22:35.502Z,14.10
2023-05-07T07:25:03.127Z,15.07
2023-05-07T07:27:32.420Z,14.10
2023-05-07T07:30:00.009Z,15.18
2023-05-07T07:32:27.759Z,14.43
2023-05-07T07:34:55.397Z,14.05
2023-05-07T07:37:23.040Z,14.32
2023-05-07T07:39:50.651Z,14.07
2023-05-07T07:42:19.196Z,13.85
2023-05-07T07:44:48.187Z,13.80
2023-05-07T07:47:15.966Z,14.02
2023-05-07T07:49:43.628Z,14.23
2023-05-07T07:52:11.316Z,14.32
2023-05-07T07:54:39.019Z,13.27
2023-05-07T07:57:07.175Z,13.93
2023-05-07T07:59:34.745Z,14.25
2023-05-07T08:02:03.732Z,13.93
2023-05-07T08:04:31.529Z,13.90
2023-05-07T08:06:59.266Z,13.52
2023-05-07T08:09:26.855Z,13.75
2023-05-07T08:11:54.666Z,13.52
2023-05-07T08:14:22.433Z,13.88
2023-05-07T08:16:50.089Z,14.07
2023-05-07T08:19:19.054Z,13.52
2023-05-07T08:21:48.607Z,14.65
2023-05-07T08:24:16.424Z,13.48
2023-05-07T08:26:44.315Z,13.43
2023-05-07T08:29:11.969Z,13.68
2023-05-07T08:31:40.660Z,13.68
2023-05-07T08:34:09.788Z,13.65
2023-05-07T08:36:39.432Z,14.05
2023-05-07T08:39:07.410Z,13.98
2023-05-07T08:41:35.242Z,14.48
2023-05-07T08:44:05.388Z,12.95
2023-05-07T08:46:34.068Z,13.10
2023-05-07T08:49:01.830Z,13.82
2023-05-07T08:51:29.556Z,13.02
2023-05-07T08:53:58.628Z,13.30
2023-05-07T08:56:26.714Z,13.45
2023-05-07T08:58:57.574Z,13.40
2023-05-07T09:01:26.040Z,13.13
2023-05-07T09:03:54.254Z,13.93
2023-05-07T09:06:22.033Z,13.32
2023-05-07T09:08:53.725Z,13.27
2023-05-07T09:11:25.955Z,13.38
2023-05-07T09:13:56.512Z,14.15
2023-05-07T09:16:24.533Z,13.80
2023-05-07T09:18:54.032Z,14.07
2023-05-07T09:21:23.851Z,13.38
2023-05-07T09:23:52.778Z,13.30
2023-05-07T09:26:21.337Z,12.90
2023-05-07T09:28:50.332Z,12.82
2023-05-07T09:31:21.141Z,13.40
2023-05-07T09:33:49.374Z,13.70
2023-05-07T09:36:18.021Z,14.55
2023-05-07T09:38:45.772Z,13.25
2023-05-07T09:41:14.755Z,13.73
2023-05-07T09:43:42.593Z,13.30
2023-05-07T09:46:14.349Z,13.57
2023-05-07T09:51:17.309Z,14.20
2023-05-07T09:53:46.971Z,13.15
2023-05-07T09:56:16.330Z,13.93
2023-05-07T09:58:44.422Z,13.02
2023-05-07T10:01:14.981Z,13.70
2023-05-07T10:03:44.309Z,13.93
2023-05-07T10:06:12.477Z,13.75
2023-05-07T10:08:40.171Z,13.98
2023-05-07T10:11:07.784Z,13.90
2023-05-07T10:13:38.199Z,14.80
2023-05-07T10:16:06.636Z,13.90
2023-05-07T10:18:36.254Z,13.85
2023-05-07T10:21:09.079Z,14.15
2023-05-07T10:23:36.868Z,14.35
2023-05-07T10:26:06.690Z,14.35
2023-05-07T10:28:38.454Z,13.35
2023-05-07T10:31:20.818Z,14.23
2023-05-07T10:33:52.191Z,14.07
2023-05-07T10:36:20.917Z,14.63
2023-05-07T10:38:48.586Z,13.32
2023-05-07T10:41:17.552Z,14.35
2023-05-07T10:43:46.595Z,14.60
2023-05-07T10:46:17.357Z,14.85
2023-05-07T10:49:14.088Z,13.18
2023-05-07T10:51:41.991Z,13.90
2023-05-07T10:54:22.927Z,13.68
2023-05-07T10:56:52.039Z,13.55
2023-05-07T10:59:41.699Z,13.73
2023-05-07T11:02:10.941Z,13.55
2023-05-07T11:04:40.089Z,13.43
2023-05-07T11:07:26.115Z,13.30
2023-05-07T11:10:02.652Z,14.07
2023-05-07T11:13:03.690Z,13.40
2023-05-07T11:15:49.615Z,13.50
2023-05-07T11:18:18.597Z,14.27
2023-05-07T11:20:52.418Z,14.23
2023-05-07T11:23:57.581Z,14.15
2023-05-07T11:26:26.322Z,14.68
2023-05-07T11:28:54.971Z,13.68
2023-05-07T11:31:27.279Z,14.05
2023-05-07T11:33:55.882Z,14.27
2023-05-07T11:36:27.062Z,15.00
2023-05-07T11:38:54.834Z,14.13
2023-05-07T11:41:23.010Z,13.65
2023-05-07T11:44:00.741Z,13.60
2023-05-07T11:46:29.757Z,14.48
2023-05-07T11:48:57.999Z,14.40
2023-05-07T11:51:30.928Z,13.75
2023-05-07T11:53:58.595Z,13.65
2023-05-07T11:56:26.353Z,13.77
2023-05-07T11:58:53.981Z,13.57
2023-05-07T12:01:21.621Z,14.25
2023-05-07T12:03:49.251Z,14.43
2023-05-07T12:06:18.142Z,14.73
2023-05-07T12:08:48.380Z,14.20
2023-05-07T12:11:18.958Z,14.13
2023-05-07T12:13:46.874Z,14.02
2023-05-07T12:16:14.730Z,13.95
2023-05-07T12:18:42.595Z,14.15
2023-05-07T12:21:10.854Z,13.82
2023-05-07T12:23:38.985Z,14.02
2023-05-07T12:26:08.109Z,13.63
2023-05-07T12:28:39.764Z,13.15
2023-05-07T12:31:08.134Z,13.95
2023-05-07T12:33:37.190Z,14.43
2023-05-07T12:36:07.720Z,13.82
2023-05-07T12:38:37.620Z,14.43
2023-05-07T12:41:05.695Z,13.48
2023-05-07T12:43:34.667Z,13.23
2023-05-07T12:46:03.915Z,13.60
2023-05-07T12:48:31.550Z,13.68
2023-05-07T12:51:01.214Z,14.20
2023-05-07T12:53:30.012Z,14.70
2023-05-07T12:55:59.212Z,13.35
2023-05-07T12:58:27.961Z,13.80
2023-05-07T13:01:00.444Z,13.43
2023-05-07T13:03:30.254Z,14.40
2023-05-07T13:05:59.431Z,13.90
2023-05-07T13:08:32.375Z,14.25
2023-05-07T13:11:04.105Z,14.02
2023-05-07T13:13:32.622Z,14.20
2023-05-07T13:16:02.383Z,13.85
2023-05-07T13:18:32.048Z,13.65
2023-05-07T13:21:00.399Z,13.52
2023-05-07T13:23:28.421Z,14.18
2023-05-07T13:25:56.880Z,14.40
2023-05-07T13:28:24.780Z,14.15
2023-05-07T13:30:52.895Z,13.18
2023-05-07T13:33:22.038Z,13.02
2023-05-07T13:35:49.700Z,14.15
2023-05-07T13:38:17.863Z,13.48
2023-05-07T13:40:45.494Z,13.50
2023-05-07T13:43:13.039Z,13.55
2023-05-07T13:45:40.670Z,13.35
2023-05-07T13:48:08.397Z,13.68
2023-05-07T13:50:37.414Z,13.60
2023-05-07T13:53:05.050Z,14.00
2023-05-07T13:55:32.686Z,14.45
2023-05-07T13:58:01.190Z,14.52
2023-05-07T14:00:30.085Z,14.05
2023-05-07T14:02:58.790Z,14.43
2023-05-07T14:05:27.622Z,14.70
2023-05-07T14:07:57.545Z,13.80
2023-05-07T14:10:25.494Z,14.10
2023-05-07T14:12:53.700Z,14.60
2023-05-07T14:15:21.343Z,14.35
2023-05-07T14:17:49.030Z,13.77
2023-05-07T14:20:16.658Z,13.70
2023-05-07T14:22:44.253Z,13.88
2023-05-07T14:25:13.945Z,13.73
2023-05-07T14:27:41.651Z,13.20
2023-05-07T14:30:10.165Z,13.77
2023-05-07T14:32:38.065Z,14.43
2023-05-07T14:35:06.368Z,13.75
2023-05-07T14:37:33.980Z,13.00
2023-05-07T14:40:01.560Z,12.57
2023-05-07T14:42:30.457Z,12.73
2023-05-07T14:44:58.068Z,12.98
2023-05-07T14:47:25.659Z,13.00
2023-05-07T14:49:54.068Z,14.13
2023-05-07T14:52:21.696Z,13.13
2023-05-07T14:54:49.299Z,12.63
2023-05-07T14:57:19.427Z,13.15
2023-05-07T14:59:48.844Z,14.00
2023-05-07T15:02:16.873Z,12.70
2023-05-07T15:04:47.495Z,13.95
2023-05-07T15:07:16.052Z,14.25
2023-05-07T15:09:43.845Z,13.60
2023-05-07T15:12:12.110Z,13.48
2023-05-07T15:14:39.664Z,12.95
2023-05-07T15:17:08.746Z,13.80
2023-05-07T15:19:36.469Z,13.10
2023-05-07T15:22:04.180Z,13.20
2023-05-07T15:24:32.287Z,13.63
2023-05-07T15:27:00.202Z,13.75
2023-05-07T15:29:27.756Z,13.70
2023-05-07T15:31:55.566Z,13.25
2023-05-07T15:34:25.032Z,13.75
2023-05-07T15:36:52.672Z,14.05
2023-05-07T15:39:20.870Z,14.13
2023-05-07T15:41:49.112Z,14.23
2023-05-07T15:44:16.701Z,13.55
2023-05-07T15:46:44.277Z,14.02
2023-05-07T15:49:11.907Z,13.50
2023-05-07T15:51:40.854Z,13.80
2023-05-07T15:54:08.440Z,13.52
2023-05-07T15:56:36.092Z,13.60
2023-05-07T15:59:04.010Z,13.23
2023-05-07T16:01:32.396Z,13.88
2023-05-07T16:04:00.087Z,12.77
2023-05-07T16:06:28.466Z,13.55
2023-05-07T16:08:57.407Z,13.65
2023-05-07T16:11:25.037Z,13.43
2023-05-07T16:13:52.581Z,14.07
2023-05-07T16:16:20.366Z,12.98
2023-05-07T16:18:48.141Z,12.40
2023-05-07T16:21:15.773Z,13.85
2023-05-07T16:23:43.369Z,13.90
2023-05-07T16:26:14.477Z,13.25
2023-05-07T16:28:42.113Z,13.60
2023-05-07T16:31:09.928Z,12.68
2023-05-07T16:33:37.592Z,14.35
2023-05-07T16:36:05.739Z,13.27
2023-05-07T16:38:34.279Z,13.02
2023-05-07T16:41:01.956Z,14.10
2023-05-07T16:43:31.280Z,13.02
2023-05-07T16:45:58.893Z,14.30
2023-05-07T16:48:27.170Z,13.70
2023-05-07T16:50:54.819Z,13.90
2023-05-07T16:53:22.383Z,13.80
2023-05-07T16:55:50.020Z,13.18
2023-05-07T16:58:17.665Z,13.68
2023-05-07T17:00:50.582Z,13.48
2023-05-07T17:03:19.312Z,12.90
2023-05-07T17:05:47.391Z,12.98
2023-05-07T17:08:15.159Z,13.48
2023-05-07T17:10:43.208Z,12.77
2023-05-07T17:13:10.891Z,13.30
2023-05-07T17:15:38.771Z,12.90
2023-05-07T17:18:08.087Z,13.05
2023-05-07T17:20:35.812Z,13.52
2023-05-07T17:23:03.385Z,13.45
2023-05-07T17:25:33.076Z,13.68
2023-05-07T17:28:00.720Z,13.55
2023-05-07T17:30:28.321Z,13.75
2023-05-07T17:33:03.828Z,12.98
2023-05-07T17:35:38.456Z,13.13
2023-05-07T17:38:06.080Z,12.98
2023-05-07T17:40:34.557Z,12.75
2023-05-07T17:43:02.701Z,13.38
2023-05-07T17:45:30.353Z,12.85
2023-05-07T17:47:58.010Z,13.13
2023-05-07T17:50:25.757Z,13.10
2023-05-07T17:52:55.001Z,11.90
2023-05-07T17:55:22.856Z,13.20
2023-05-07T17:57:50.517Z,13.15
2023-05-07T18:00:18.968Z,12.13
2023-05-07T18:02:46.626Z,12.40
2023-05-07T18:05:14.380Z,12.95
2023-05-07T18:07:41.984Z,12.65
2023-05-07T18:10:12.250Z,13.18
2023-05-07T18:12:40.986Z,13.07
2023-05-07T18:15:09.845Z,12.55
2023-05-07T18:17:37.694Z,12.73
2023-05-07T18:20:08.928Z,13.13
2023-05-07T18:22:36.956Z,12.00
2023-05-07T18:25:05.282Z,12.60
2023-05-07T18:27:34.248Z,12.77
2023-05-07T18:30:01.893Z,12.70
2023-05-07T18:32:29.537Z,12.77
2023-05-07T18:34:57.257Z,12.45
2023-05-07T18:37:26.799Z,12.55
2023-05-07T18:39:54.572Z,12.73
2023-05-07T18:42:22.182Z,12.85
2023-05-07T18:44:51.225Z,12.98
2023-05-07T18:47:18.861Z,13.05
2023-05-07T18:49:46.576Z,13.10
2023-05-07T18:52:16.324Z,13.02
2023-05-07T18:54:44.069Z,14.82
2023-05-07T18:57:11.725Z,14.50
2023-05-07T18:59:39.354Z,14.77
2023-05-07T19:02:08.607Z,14.05
2023-05-07T19:04:36.318Z,13.00
2023-05-07T19:07:03.976Z,12.68
2023-05-07T19:09:31.750Z,12.43
2023-05-07T19:11:59.610Z,13.57
2023-05-07T19:14:27.280Z,13.20
2023-05-07T19:16:54.868Z,12.63
2023-05-07T19:19:23.910Z,12.90
2023-05-07T19:21:51.627Z,12.65
2023-05-07T19:24:19.421Z,12.80
2023-05-07T19:26:47.023Z,13.45
2023-05-07T19:29:18.149Z,13.80
2023-05-07T19:31:46.595Z,13.88
2023-05-07T19:34:14.567Z,13.18
2023-05-07T19:36:43.713Z,13.40
2023-05-07T19:39:11.491Z,13.45
2023-05-07T19:41:39.289Z,13.18
2023-05-07T19:44:06.888Z,13.68
2023-05-07T19:46:34.558Z,13.50
2023-05-07T19:49:02.386Z,13.70
2023-05-07T19:51:32.445Z,13.18
2023-05-07T19:54:02.304Z,12.77
2023-05-07T19:56:29.970Z,13.35
2023-05-07T19:58:57.703Z,13.05
2023-05-07T20:01:25.344Z,13.45
2023-05-07T20:03:53.028Z,16.65
2023-05-07T20:06:23.298Z,14.80
2023-05-07T20:08:51.112Z,13.55
2023-05-07T20:11:21.581Z,13.48
2023-05-07T20:13:49.291Z,12.88
2023-05-07T20:16:17.012Z,12.88
2023-05-07T20:18:44.669Z,13.18
2023-05-07T20:21:22.076Z,13.13
2023-05-07T20:23:49.853Z,13.02
2023-05-07T20:26:17.498Z,13.55
2023-05-07T20:28:46.479Z,15.02
2023-05-07T20:31:14.181Z,13.90
2023-05-07T20:33:41.894Z,14.45
2023-05-07T20:36:09.694Z,16.20
2023-05-07T20:38:37.273Z,15.30
2023-05-07T20:41:08.683Z,14.05
2023-05-07T20:43:37.425Z,13.18
2023-05-07T20:46:07.899Z,13.20
2023-05-07T20:48:36.176Z,13.93
2023-05-07T20:51:04.247Z,13.80
2023-05-07T20:53:32.398Z,15.23
2023-05-07T20:56:00.490Z,14.60
2023-05-07T20:58:29.605Z,15.13
2023-05-07T21:00:57.628Z,13.60
2023-05-07T21:03:26.937Z,14.20
2023-05-07T21:05:55.721Z,13.98
2023-05-07T21:08:23.440Z,14.02
2023-05-07T21:10:51.634Z,13.95
2023-05-07T21:13:19.599Z,13.70
2023-05-07T21:15:47.513Z,13.82
2023-05-07T21:18:15.269Z,14.68
2023-05-07T21:20:44.460Z,13.85
2023-05-07T21:23:12.058Z,14.30
2023-05-07T21:25:41.329Z,14.40
2023-05-07T21:28:09.594Z,14.02
2023-05-07T21:30:37.313Z,14.70
2023-05-07T21:33:07.008Z,13.75
2023-05-07T21:35:36.224Z,14.98
2023-05-07T21:38:05.498Z,14.50
2023-05-07T21:40:33.126Z,14.30
2023-05-07T21:43:00.976Z,13.93
2023-05-07T21:45:28.633Z,14.13
2023-05-07T21:47:56.345Z,13.85
2023-05-07T21:50:24.134Z,15.45
2023-05-07T21:52:51.725Z,14.23
2023-05-07T21:55:21.068Z,14.70
2023-05-07T21:58:01.351Z,14.30
2023-05-07T22:00:33.165Z,15.02
2023-05-07T22:03:01.279Z,14.88
2023-05-07T22:05:29.104Z,14.38
2023-05-07T22:07:56.698Z,14.63
2023-05-07T22:10:25.708Z,14.82
2023-05-07T22:12:53.384Z,14.75
2023-05-07T22:15:21.387Z,14.55
2023-05-07T22:17:49.021Z,13.75
2023-05-07T22:20:16.743Z,14.50
2023-05-07T22:22:49.527Z,14.10
2023-05-07T22:25:20.077Z,16.48
2023-05-07T22:27:49.238Z,14.77
2023-05-07T22:30:16.938Z,14.95
2023-05-07T22:32:45.445Z,15.38
2023-05-07T22:35:13.160Z,15.85
2023-05-07T22:37:40.788Z,15.57
2023-05-07T22:40:09.430Z,15.25
2023-05-07T22:42:37.151Z,14.18
2023-05-07T22:45:07.130Z,14.93
2023-05-07T22:47:34.768Z,15.32
2023-05-07T22:50:02.382Z,15.80
2023-05-07T22:52:30.001Z,14.90
2023-05-07T22:54:57.601Z,14.98
2023-05-07T22:57:25.250Z,15.23
2023-05-07T22:59:54.832Z,15.25
2023-05-07T23:02:24.248Z,15.20
2023-05-07T23:04:51.919Z,14.60
2023-05-07T23:07:19.538Z,14.00
2023-05-07T23:09:47.145Z,13.90
2023-05-07T23:12:14.761Z,14.85
2023-05-07T23:14:42.330Z,13.30
2023-05-07T23:17:10.011Z,13.15
2023-05-07T23:19:39.031Z,14.30
2023-05-07T23:22:06.713Z,13.60
2023-05-07T23:24:34.869Z,14.40
2023-05-07T23:27:05.421Z,14.77
2023-05-07T23:29:33.126Z,14.00
2023-05-07T23:32:00.768Z,14.32
2023-05-07T23:34:28.626Z,14.35
2023-05-07T23:36:57.791Z,13.13
2023-05-07T23:39:25.414Z,13.45
2023-05-07T23:41:53.028Z,13.65
2023-05-07T23:44:20.613Z,13.68
2023-05-07T23:46:48.280Z,14.05
2023-05-07T23:49:15.914Z,14.10
2023-05-07T23:51:43.653Z,13.90
2023-05-07T23:54:12.585Z,15.07
2023-05-07T23:56:40.215Z,14.07
2023-05-07T23:59:08.552Z,13.30
